sensor_id;sensor_type;location;lat;lon;timestamp;temperature;humidity
56268;DHT22;42175;46.930;9.532;2023-04-06T00:01:38;22.80;37.20
56268;DHT22;42175;46.930;9.532;2023-04-06T00:04:04;22.80;37.10
56268;DHT22;42175;46.930;9.532;2023-04-06T00:06:30;22.80;37.10
56268;DHT22;42175;46.930;9.532;2023-04-06T00:08:56;22.80;37.10
56268;DHT22;42175;46.930;9.532;2023-04-06T00:11:22;22.80;37.20
56268;DHT22;42175;46.930;9.532;2023-04-06T00:13:48;22.80;37.10
56268;DHT22;42175;46.930;9.532;2023-04-06T00:16:14;22.80;37.10
56268;DHT22;42175;46.930;9.532;2023-04-06T00:18:40;22.80;37.10
56268;DHT22;42175;46.930;9.532;2023-04-06T00:21:06;22.80;37.10
56268;DHT22;42175;46.930;9.532;2023-04-06T00:23:32;22.80;37.10
56268;DHT22;42175;46.930;9.532;2023-04-06T00:25:57;22.80;36.90
56268;DHT22;42175;46.930;9.532;2023-04-06T00:28:23;22.80;37.10
56268;DHT22;42175;46.930;9.532;2023-04-06T00:30:52;22.70;37.00
56268;DHT22;42175;46.930;9.532;2023-04-06T00:33:21;22.80;37.00
56268;DHT22;42175;46.930;9.532;2023-04-06T00:35:47;22.80;37.00
56268;DHT22;42175;46.930;9.532;2023-04-06T00:38:13;22.80;36.90
56268;DHT22;42175;46.930;9.532;2023-04-06T00:40:39;22.80;36.80
56268;DHT22;42175;46.930;9.532;2023-04-06T00:43:08;22.80;36.80
56268;DHT22;42175;46.930;9.532;2023-04-06T00:45:35;22.80;36.80
56268;DHT22;42175;46.930;9.532;2023-04-06T00:48:01;22.70;36.60
56268;DHT22;42175;46.930;9.532;2023-04-06T00:50:30;22.70;36.60
56268;DHT22;42175;46.930;9.532;2023-04-06T00:52:56;22.80;36.60
56268;DHT22;42175;46.930;9.532;2023-04-06T00:55:22;22.80;36.60
56268;DHT22;42175;46.930;9.532;2023-04-06T00:57:48;22.80;36.60
56268;DHT22;42175;46.930;9.532;2023-04-06T01:00:16;22.80;36.60
56268;DHT22;42175;46.930;9.532;2023-04-06T01:02:42;22.70;36.50
56268;DHT22;42175;46.930;9.532;2023-04-06T01:05:10;22.80;36.40
56268;DHT22;42175;46.930;9.532;2023-04-06T01:07:36;22.70;36.30
56268;DHT22;42175;46.930;9.532;2023-04-06T01:10:02;22.70;36.30
56268;DHT22;42175;46.930;9.532;2023-04-06T01:12:28;22.70;36.40
56268;DHT22;42175;46.930;9.532;2023-04-06T01:14:54;22.70;36.30
56268;DHT22;42175;46.930;9.532;2023-04-06T01:17:20;22.70;36.30
56268;DHT22;42175;46.930;9.532;2023-04-06T01:19:46;22.70;36.20
56268;DHT22;42175;46.930;9.532;2023-04-06T01:22:16;22.70;36.20
56268;DHT22;42175;46.930;9.532;2023-04-06T01:24:43;22.70;36.10
56268;DHT22;42175;46.930;9.532;2023-04-06T01:27:08;22.70;36.30
56268;DHT22;42175;46.930;9.532;2023-04-06T01:29:34;22.70;36.20
56268;DHT22;42175;46.930;9.532;2023-04-06T01:32:00;22.70;36.20
56268;DHT22;42175;46.930;9.532;2023-04-06T01:34:26;22.70;36.20
56268;DHT22;42175;46.930;9.532;2023-04-06T01:36:52;22.70;36.20
56268;DHT22;42175;46.930;9.532;2023-04-06T01:39:18;22.70;36.10
56268;DHT22;42175;46.930;9.532;2023-04-06T01:41:44;22.70;36.10
56268;DHT22;42175;46.930;9.532;2023-04-06T01:44:10;22.70;36.00
56268;DHT22;42175;46.930;9.532;2023-04-06T01:46:35;22.70;36.00
56268;DHT22;42175;46.930;9.532;2023-04-06T01:49:01;22.70;36.00
56268;DHT22;42175;46.930;9.532;2023-04-06T01:51:27;22.70;36.00
56268;DHT22;42175;46.930;9.532;2023-04-06T01:53:52;22.70;36.00
56268;DHT22;42175;46.930;9.532;2023-04-06T01:56:18;22.70;36.00
56268;DHT22;42175;46.930;9.532;2023-04-06T01:58:44;22.70;36.00
56268;DHT22;42175;46.930;9.532;2023-04-06T02:01:10;22.60;35.90
56268;DHT22;42175;46.930;9.532;2023-04-06T02:03:36;22.70;35.90
56268;DHT22;42175;46.930;9.532;2023-04-06T02:06:01;22.70;35.90
56268;DHT22;42175;46.930;9.532;2023-04-06T02:08:27;22.70;35.90
56268;DHT22;42175;46.930;9.532;2023-04-06T02:10:53;22.70;35.80
56268;DHT22;42175;46.930;9.532;2023-04-06T02:13:19;22.60;35.80
56268;DHT22;42175;46.930;9.532;2023-04-06T02:15:44;22.60;35.70
56268;DHT22;42175;46.930;9.532;2023-04-06T02:18:10;22.60;35.70
56268;DHT22;42175;46.930;9.532;2023-04-06T02:20:36;22.60;35.80
56268;DHT22;42175;46.930;9.532;2023-04-06T02:23:02;22.70;35.80
56268;DHT22;42175;46.930;9.532;2023-04-06T02:25:27;22.60;35.70
56268;DHT22;42175;46.930;9.532;2023-04-06T02:27:54;22.60;35.70
56268;DHT22;42175;46.930;9.532;2023-04-06T02:30:19;22.60;35.70
56268;DHT22;42175;46.930;9.532;2023-04-06T02:32:45;22.60;35.70
56268;DHT22;42175;46.930;9.532;2023-04-06T02:35:11;22.60;35.70
56268;DHT22;42175;46.930;9.532;2023-04-06T02:37:36;22.60;35.70
56268;DHT22;42175;46.930;9.532;2023-04-06T02:40:03;22.60;35.60
56268;DHT22;42175;46.930;9.532;2023-04-06T02:42:29;22.60;35.60
56268;DHT22;42175;46.930;9.532;2023-04-06T02:44:54;22.60;35.60
56268;DHT22;42175;46.930;9.532;2023-04-06T02:47:20;22.60;35.50
56268;DHT22;42175;46.930;9.532;2023-04-06T02:49:46;22.60;35.50
56268;DHT22;42175;46.930;9.532;2023-04-06T02:52:12;22.60;35.60
56268;DHT22;42175;46.930;9.532;2023-04-06T02:54:37;22.60;35.60
56268;DHT22;42175;46.930;9.532;2023-04-06T02:57:03;22.60;35.50
56268;DHT22;42175;46.930;9.532;2023-04-06T02:59:29;22.60;35.40
56268;DHT22;42175;46.930;9.532;2023-04-06T03:01:55;22.70;35.40
56268;DHT22;42175;46.930;9.532;2023-04-06T03:04:20;22.60;35.40
56268;DHT22;42175;46.930;9.532;2023-04-06T03:06:48;22.60;35.30
56268;DHT22;42175;46.930;9.532;2023-04-06T03:09:14;22.60;35.30
56268;DHT22;42175;46.930;9.532;2023-04-06T03:11:39;22.60;35.30
56268;DHT22;42175;46.930;9.532;2023-04-06T03:14:05;22.60;35.30
56268;DHT22;42175;46.930;9.532;2023-04-06T03:16:31;22.60;35.30
56268;DHT22;42175;46.930;9.532;2023-04-06T03:18:57;22.60;35.30
56268;DHT22;42175;46.930;9.532;2023-04-06T03:21:22;22.60;35.40
56268;DHT22;42175;46.930;9.532;2023-04-06T03:23:48;22.60;35.30
56268;DHT22;42175;46.930;9.532;2023-04-06T03:26:16;22.60;35.30
56268;DHT22;42175;46.930;9.532;2023-04-06T03:28:42;22.60;35.20
56268;DHT22;42175;46.930;9.532;2023-04-06T03:31:08;22.60;35.90
56268;DHT22;42175;46.930;9.532;2023-04-06T03:33:33;22.60;35.30
56268;DHT22;42175;46.930;9.532;2023-04-06T03:35:59;22.60;35.40
56268;DHT22;42175;46.930;9.532;2023-04-06T03:38:25;22.60;35.30
56268;DHT22;42175;46.930;9.532;2023-04-06T03:40:51;22.60;35.30
56268;DHT22;42175;46.930;9.532;2023-04-06T03:43:17;22.60;35.20
56268;DHT22;42175;46.930;9.532;2023-04-06T03:45:42;22.60;35.10
56268;DHT22;42175;46.930;9.532;2023-04-06T03:48:08;22.60;35.20
56268;DHT22;42175;46.930;9.532;2023-04-06T03:50:34;22.60;35.10
56268;DHT22;42175;46.930;9.532;2023-04-06T03:52:59;22.60;35.20
56268;DHT22;42175;46.930;9.532;2023-04-06T03:55:28;22.50;35.10
56268;DHT22;42175;46.930;9.532;2023-04-06T03:57:54;22.60;35.20
56268;DHT22;42175;46.930;9.532;2023-04-06T04:00:20;22.60;35.20
56268;DHT22;42175;46.930;9.532;2023-04-06T04:02:45;22.50;35.20
56268;DHT22;42175;46.930;9.532;2023-04-06T04:05:11;22.60;35.30
56268;DHT22;42175;46.930;9.532;2023-04-06T04:07:37;22.50;35.20
56268;DHT22;42175;46.930;9.532;2023-04-06T04:10:03;22.50;35.40
56268;DHT22;42175;46.930;9.532;2023-04-06T04:12:29;22.60;35.30
56268;DHT22;42175;46.930;9.532;2023-04-06T04:14:54;22.60;35.40
56268;DHT22;42175;46.930;9.532;2023-04-06T04:17:21;22.60;35.50
56268;DHT22;42175;46.930;9.532;2023-04-06T04:19:47;22.50;35.50
56268;DHT22;42175;46.930;9.532;2023-04-06T04:22:13;22.50;35.50
56268;DHT22;42175;46.930;9.532;2023-04-06T04:24:38;22.60;35.60
56268;DHT22;42175;46.930;9.532;2023-04-06T04:27:04;22.50;35.50
56268;DHT22;42175;46.930;9.532;2023-04-06T04:29:30;22.50;35.50
56268;DHT22;42175;46.930;9.532;2023-04-06T04:31:56;22.50;35.40
56268;DHT22;42175;46.930;9.532;2023-04-06T04:34:22;22.50;35.50
56268;DHT22;42175;46.930;9.532;2023-04-06T04:36:54;22.60;35.50
56268;DHT22;42175;46.930;9.532;2023-04-06T04:39:20;22.60;35.60
56268;DHT22;42175;46.930;9.532;2023-04-06T04:41:45;22.50;35.50
56268;DHT22;42175;46.930;9.532;2023-04-06T04:44:11;22.50;35.60
56268;DHT22;42175;46.930;9.532;2023-04-06T04:46:37;22.50;36.00
56268;DHT22;42175;46.930;9.532;2023-04-06T04:49:03;22.60;37.50
56268;DHT22;42175;46.930;9.532;2023-04-06T04:51:29;22.50;37.40
56268;DHT22;42175;46.930;9.532;2023-04-06T04:53:55;22.50;36.40
56268;DHT22;42175;46.930;9.532;2023-04-06T04:56:21;22.50;36.30
56268;DHT22;42175;46.930;9.532;2023-04-06T04:58:47;22.50;36.50
56268;DHT22;42175;46.930;9.532;2023-04-06T05:01:12;22.60;36.30
56268;DHT22;42175;46.930;9.532;2023-04-06T05:03:38;22.50;35.80
56268;DHT22;42175;46.930;9.532;2023-04-06T05:06:05;22.50;37.40
56268;DHT22;42175;46.930;9.532;2023-04-06T05:08:31;22.50;37.90
56268;DHT22;42175;46.930;9.532;2023-04-06T05:10:57;22.60;37.40
56268;DHT22;42175;46.930;9.532;2023-04-06T05:13:23;22.50;36.70
56268;DHT22;42175;46.930;9.532;2023-04-06T05:15:48;22.50;36.40
56268;DHT22;42175;46.930;9.532;2023-04-06T05:18:14;22.50;36.00
56268;DHT22;42175;46.930;9.532;2023-04-06T05:20:41;22.40;35.80
56268;DHT22;42175;46.930;9.532;2023-04-06T05:23:07;22.40;35.80
56268;DHT22;42175;46.930;9.532;2023-04-06T05:25:33;22.50;36.00
56268;DHT22;42175;46.930;9.532;2023-04-06T05:27:59;22.40;35.80
56268;DHT22;42175;46.930;9.532;2023-04-06T05:30:25;22.50;35.90
56268;DHT22;42175;46.930;9.532;2023-04-06T05:32:51;22.40;35.90
56268;DHT22;42175;46.930;9.532;2023-04-06T05:35:16;22.40;35.90
56268;DHT22;42175;46.930;9.532;2023-04-06T05:37:43;22.50;36.00
56268;DHT22;42175;46.930;9.532;2023-04-06T05:40:09;22.50;36.20
56268;DHT22;42175;46.930;9.532;2023-04-06T05:42:41;22.50;36.00
56268;DHT22;42175;46.930;9.532;2023-04-06T05:45:09;22.50;36.00
56268;DHT22;42175;46.930;9.532;2023-04-06T05:47:36;22.50;36.00
56268;DHT22;42175;46.930;9.532;2023-04-06T05:50:02;22.40;36.30
56268;DHT22;42175;46.930;9.532;2023-04-06T05:52:28;22.50;36.80
56268;DHT22;42175;46.930;9.532;2023-04-06T05:54:54;22.50;37.20
56268;DHT22;42175;46.930;9.532;2023-04-06T05:57:19;22.50;37.20
56268;DHT22;42175;46.930;9.532;2023-04-06T05:59:45;22.50;37.10
56268;DHT22;42175;46.930;9.532;2023-04-06T06:02:11;22.40;37.10
56268;DHT22;42175;46.930;9.532;2023-04-06T06:04:37;22.40;37.00
56268;DHT22;42175;46.930;9.532;2023-04-06T06:07:02;22.40;37.00
56268;DHT22;42175;46.930;9.532;2023-04-06T06:09:29;22.40;37.00
56268;DHT22;42175;46.930;9.532;2023-04-06T06:11:54;22.40;37.00
56268;DHT22;42175;46.930;9.532;2023-04-06T06:14:20;22.40;37.00
56268;DHT22;42175;46.930;9.532;2023-04-06T06:16:47;22.40;37.10
56268;DHT22;42175;46.930;9.532;2023-04-06T06:19:13;22.40;37.00
56268;DHT22;42175;46.930;9.532;2023-04-06T06:21:38;22.40;37.00
56268;DHT22;42175;46.930;9.532;2023-04-06T06:24:05;22.40;37.10
56268;DHT22;42175;46.930;9.532;2023-04-06T06:26:31;22.40;37.10
56268;DHT22;42175;46.930;9.532;2023-04-06T06:28:57;22.40;37.10
56268;DHT22;42175;46.930;9.532;2023-04-06T06:31:22;22.40;37.00
56268;DHT22;42175;46.930;9.532;2023-04-06T06:33:48;22.40;37.00
56268;DHT22;42175;46.930;9.532;2023-04-06T06:36:17;22.50;37.10
56268;DHT22;42175;46.930;9.532;2023-04-06T06:38:44;22.40;36.90
56268;DHT22;42175;46.930;9.532;2023-04-06T06:41:10;22.40;37.00
56268;DHT22;42175;46.930;9.532;2023-04-06T06:43:36;22.50;36.90
56268;DHT22;42175;46.930;9.532;2023-04-06T06:46:02;22.40;36.70
56268;DHT22;42175;46.930;9.532;2023-04-06T06:48:28;22.50;36.90
56268;DHT22;42175;46.930;9.532;2023-04-06T06:50:54;22.50;36.70
56268;DHT22;42175;46.930;9.532;2023-04-06T06:53:20;22.40;36.60
56268;DHT22;42175;46.930;9.532;2023-04-06T06:55:46;22.40;36.60
56268;DHT22;42175;46.930;9.532;2023-04-06T06:58:11;22.40;36.50
56268;DHT22;42175;46.930;9.532;2023-04-06T07:00:37;22.40;36.40
56268;DHT22;42175;46.930;9.532;2023-04-06T07:03:03;22.40;36.10
56268;DHT22;42175;46.930;9.532;2023-04-06T07:05:29;22.50;35.90
56268;DHT22;42175;46.930;9.532;2023-04-06T07:07:55;22.50;35.90
56268;DHT22;42175;46.930;9.532;2023-04-06T07:10:21;22.50;35.60
56268;DHT22;42175;46.930;9.532;2023-04-06T07:12:47;22.50;35.30
56268;DHT22;42175;46.930;9.532;2023-04-06T07:15:13;22.50;34.90
56268;DHT22;42175;46.930;9.532;2023-04-06T07:17:39;22.50;34.60
56268;DHT22;42175;46.930;9.532;2023-04-06T07:20:06;22.40;34.40
56268;DHT22;42175;46.930;9.532;2023-04-06T07:22:32;22.40;34.40
56268;DHT22;42175;46.930;9.532;2023-04-06T07:24:58;22.50;34.40
56268;DHT22;42175;46.930;9.532;2023-04-06T07:27:24;22.50;34.70
56268;DHT22;42175;46.930;9.532;2023-04-06T07:29:49;22.40;34.60
56268;DHT22;42175;46.930;9.532;2023-04-06T07:32:15;22.50;34.80
56268;DHT22;42175;46.930;9.532;2023-04-06T07:34:41;22.40;34.80
56268;DHT22;42175;46.930;9.532;2023-04-06T07:37:07;22.40;34.90
56268;DHT22;42175;46.930;9.532;2023-04-06T07:39:33;22.50;35.00
56268;DHT22;42175;46.930;9.532;2023-04-06T07:42:00;22.40;34.90
56268;DHT22;42175;46.930;9.532;2023-04-06T07:44:25;22.50;34.90
56268;DHT22;42175;46.930;9.532;2023-04-06T07:46:51;22.50;34.80
56268;DHT22;42175;46.930;9.532;2023-04-06T07:49:17;22.50;34.80
56268;DHT22;42175;46.930;9.532;2023-04-06T07:51:43;22.50;34.50
56268;DHT22;42175;46.930;9.532;2023-04-06T07:54:08;22.40;34.50
56268;DHT22;42175;46.930;9.532;2023-04-06T07:56:34;22.40;35.00
56268;DHT22;42175;46.930;9.532;2023-04-06T07:59:00;22.50;35.10
56268;DHT22;42175;46.930;9.532;2023-04-06T08:01:26;22.40;35.00
56268;DHT22;42175;46.930;9.532;2023-04-06T08:03:52;22.40;35.10
56268;DHT22;42175;46.930;9.532;2023-04-06T08:06:18;22.50;35.10
56268;DHT22;42175;46.930;9.532;2023-04-06T08:08:43;22.50;35.20
56268;DHT22;42175;46.930;9.532;2023-04-06T08:11:09;22.50;35.20
56268;DHT22;42175;46.930;9.532;2023-04-06T08:13:35;22.50;35.10
56268;DHT22;42175;46.930;9.532;2023-04-06T08:16:01;22.50;35.20
56268;DHT22;42175;46.930;9.532;2023-04-06T08:18:27;22.50;35.10
56268;DHT22;42175;46.930;9.532;2023-04-06T08:20:54;22.50;35.10
56268;DHT22;42175;46.930;9.532;2023-04-06T08:23:20;22.50;35.20
56268;DHT22;42175;46.930;9.532;2023-04-06T08:25:46;22.50;35.20
56268;DHT22;42175;46.930;9.532;2023-04-06T08:28:12;22.50;35.20
56268;DHT22;42175;46.930;9.532;2023-04-06T08:30:40;22.60;35.30
56268;DHT22;42175;46.930;9.532;2023-04-06T08:33:06;22.60;35.10
56268;DHT22;42175;46.930;9.532;2023-04-06T08:35:32;22.60;35.10
56268;DHT22;42175;46.930;9.532;2023-04-06T08:37:57;22.50;35.00
56268;DHT22;42175;46.930;9.532;2023-04-06T08:40:23;22.50;35.00
56268;DHT22;42175;46.930;9.532;2023-04-06T08:42:55;22.60;35.10
56268;DHT22;42175;46.930;9.532;2023-04-06T08:45:21;22.50;35.60
56268;DHT22;42175;46.930;9.532;2023-04-06T08:47:54;22.50;35.20
56268;DHT22;42175;46.930;9.532;2023-04-06T08:50:23;22.60;35.50
56268;DHT22;42175;46.930;9.532;2023-04-06T08:52:49;22.60;35.10
56268;DHT22;42175;46.930;9.532;2023-04-06T08:55:16;22.50;34.90
56268;DHT22;42175;46.930;9.532;2023-04-06T08:57:42;22.50;34.90
56268;DHT22;42175;46.930;9.532;2023-04-06T09:00:10;22.60;34.90
56268;DHT22;42175;46.930;9.532;2023-04-06T09:02:41;22.50;34.90
56268;DHT22;42175;46.930;9.532;2023-04-06T09:05:08;22.60;35.00
56268;DHT22;42175;46.930;9.532;2023-04-06T09:07:36;22.50;34.80
56268;DHT22;42175;46.930;9.532;2023-04-06T09:10:03;22.60;34.80
56268;DHT22;42175;46.930;9.532;2023-04-06T09:12:30;22.60;34.90
56268;DHT22;42175;46.930;9.532;2023-04-06T09:14:57;22.50;35.00
56268;DHT22;42175;46.930;9.532;2023-04-06T09:17:25;22.60;35.00
56268;DHT22;42175;46.930;9.532;2023-04-06T09:19:51;22.60;35.10
56268;DHT22;42175;46.930;9.532;2023-04-06T09:22:18;22.60;35.00
56268;DHT22;42175;46.930;9.532;2023-04-06T09:24:49;22.60;34.90
56268;DHT22;42175;46.930;9.532;2023-04-06T09:27:15;22.60;34.60
56268;DHT22;42175;46.930;9.532;2023-04-06T09:29:42;22.60;34.60
56268;DHT22;42175;46.930;9.532;2023-04-06T09:32:09;22.60;34.70
56268;DHT22;42175;46.930;9.532;2023-04-06T09:34:42;22.60;34.80
56268;DHT22;42175;46.930;9.532;2023-04-06T09:37:18;22.60;35.30
56268;DHT22;42175;46.930;9.532;2023-04-06T09:39:44;22.60;34.60
56268;DHT22;42175;46.930;9.532;2023-04-06T09:42:24;22.70;34.80
56268;DHT22;42175;46.930;9.532;2023-04-06T09:44:54;22.60;34.80
56268;DHT22;42175;46.930;9.532;2023-04-06T09:47:19;22.60;34.80
56268;DHT22;42175;46.930;9.532;2023-04-06T09:49:47;22.60;34.40
56268;DHT22;42175;46.930;9.532;2023-04-06T09:52:15;22.70;34.50
56268;DHT22;42175;46.930;9.532;2023-04-06T09:54:43;22.60;34.50
56268;DHT22;42175;46.930;9.532;2023-04-06T09:57:36;22.60;35.20
56268;DHT22;42175;46.930;9.532;2023-04-06T10:00:05;22.70;34.90
56268;DHT22;42175;46.930;9.532;2023-04-06T10:05:37;22.60;34.70
56268;DHT22;42175;46.930;9.532;2023-04-06T10:08:08;22.60;34.50
56268;DHT22;42175;46.930;9.532;2023-04-06T10:10:35;22.60;34.60
56268;DHT22;42175;46.930;9.532;2023-04-06T10:13:01;22.60;34.50
56268;DHT22;42175;46.930;9.532;2023-04-06T10:15:30;22.70;34.20
56268;DHT22;42175;46.930;9.532;2023-04-06T10:17:59;22.60;33.70
56268;DHT22;42175;46.930;9.532;2023-04-06T10:20:48;22.60;33.90
56268;DHT22;42175;46.930;9.532;2023-04-06T10:23:37;22.60;33.90
56268;DHT22;42175;46.930;9.532;2023-04-06T10:26:05;22.60;34.00
56268;DHT22;42175;46.930;9.532;2023-04-06T10:28:32;22.60;33.90
56268;DHT22;42175;46.930;9.532;2023-04-06T10:31:00;22.60;34.00
56268;DHT22;42175;46.930;9.532;2023-04-06T10:33:27;22.60;33.80
56268;DHT22;42175;46.930;9.532;2023-04-06T10:35:52;22.60;33.70
56268;DHT22;42175;46.930;9.532;2023-04-06T10:38:19;22.60;33.80
56268;DHT22;42175;46.930;9.532;2023-04-06T10:40:49;22.60;33.50
56268;DHT22;42175;46.930;9.532;2023-04-06T10:43:22;22.70;33.80
56268;DHT22;42175;46.930;9.532;2023-04-06T10:45:56;22.60;33.60
56268;DHT22;42175;46.930;9.532;2023-04-06T10:48:22;22.60;33.50
56268;DHT22;42175;46.930;9.532;2023-04-06T10:50:51;22.60;33.50
56268;DHT22;42175;46.930;9.532;2023-04-06T10:53:25;22.60;33.50
56268;DHT22;42175;46.930;9.532;2023-04-06T10:55:52;22.60;33.30
56268;DHT22;42175;46.930;9.532;2023-04-06T10:58:18;22.70;33.30
56268;DHT22;42175;46.930;9.532;2023-04-06T11:00:48;22.60;33.20
56268;DHT22;42175;46.930;9.532;2023-04-06T11:03:15;22.60;33.00
56268;DHT22;42175;46.930;9.532;2023-04-06T11:05:48;22.60;33.10
56268;DHT22;42175;46.930;9.532;2023-04-06T11:08:25;22.60;32.70
56268;DHT22;42175;46.930;9.532;2023-04-06T11:10:51;22.60;32.70
56268;DHT22;42175;46.930;9.532;2023-04-06T11:13:17;22.70;32.90
56268;DHT22;42175;46.930;9.532;2023-04-06T11:15:43;22.60;32.90
56268;DHT22;42175;46.930;9.532;2023-04-06T11:18:08;22.60;32.50
56268;DHT22;42175;46.930;9.532;2023-04-06T11:20:34;22.60;32.70
56268;DHT22;42175;46.930;9.532;2023-04-06T11:23:00;22.60;32.90
56268;DHT22;42175;46.930;9.532;2023-04-06T11:25:27;22.60;33.00
56268;DHT22;42175;46.930;9.532;2023-04-06T11:27:53;22.60;32.50
56268;DHT22;42175;46.930;9.532;2023-04-06T11:30:19;22.60;32.30
56268;DHT22;42175;46.930;9.532;2023-04-06T11:32:45;22.60;32.10
56268;DHT22;42175;46.930;9.532;2023-04-06T11:35:22;22.60;32.00
56268;DHT22;42175;46.930;9.532;2023-04-06T11:37:49;22.60;32.10
56268;DHT22;42175;46.930;9.532;2023-04-06T11:40:15;22.60;32.60
56268;DHT22;42175;46.930;9.532;2023-04-06T11:42:41;22.60;32.80
56268;DHT22;42175;46.930;9.532;2023-04-06T11:45:07;22.60;32.60
56268;DHT22;42175;46.930;9.532;2023-04-06T11:47:36;22.70;32.50
56268;DHT22;42175;46.930;9.532;2023-04-06T11:50:10;22.60;32.50
56268;DHT22;42175;46.930;9.532;2023-04-06T11:52:36;22.60;32.60
56268;DHT22;42175;46.930;9.532;2023-04-06T11:57:39;22.60;32.50
56268;DHT22;42175;46.930;9.532;2023-04-06T12:00:06;22.60;32.40
56268;DHT22;42175;46.930;9.532;2023-04-06T12:02:32;22.60;32.60
56268;DHT22;42175;46.930;9.532;2023-04-06T12:04:57;22.60;32.70
56268;DHT22;42175;46.930;9.532;2023-04-06T12:07:23;22.60;32.70
56268;DHT22;42175;46.930;9.532;2023-04-06T12:09:49;22.70;32.60
56268;DHT22;42175;46.930;9.532;2023-04-06T12:12:15;22.70;32.40
56268;DHT22;42175;46.930;9.532;2023-04-06T12:14:40;22.60;32.20
56268;DHT22;42175;46.930;9.532;2023-04-06T12:17:06;22.60;32.10
56268;DHT22;42175;46.930;9.532;2023-04-06T12:19:32;22.60;32.10
56268;DHT22;42175;46.930;9.532;2023-04-06T12:21:57;22.60;32.10
56268;DHT22;42175;46.930;9.532;2023-04-06T12:24:23;22.60;32.00
56268;DHT22;42175;46.930;9.532;2023-04-06T12:26:49;22.60;31.90
56268;DHT22;42175;46.930;9.532;2023-04-06T12:29:15;22.70;32.00
56268;DHT22;42175;46.930;9.532;2023-04-06T12:31:41;22.60;31.80
56268;DHT22;42175;46.930;9.532;2023-04-06T12:34:08;22.60;31.70
56268;DHT22;42175;46.930;9.532;2023-04-06T12:36:34;22.70;31.60
56268;DHT22;42175;46.930;9.532;2023-04-06T12:39:00;22.60;31.50
56268;DHT22;42175;46.930;9.532;2023-04-06T12:41:27;22.70;31.70
56268;DHT22;42175;46.930;9.532;2023-04-06T12:43:53;22.60;31.90
56268;DHT22;42175;46.930;9.532;2023-04-06T12:46:19;22.70;31.50
56268;DHT22;42175;46.930;9.532;2023-04-06T12:48:46;22.60;31.40
56268;DHT22;42175;46.930;9.532;2023-04-06T12:51:12;22.60;31.30
56268;DHT22;42175;46.930;9.532;2023-04-06T12:53:38;22.60;31.20
56268;DHT22;42175;46.930;9.532;2023-04-06T12:56:13;22.60;31.40
56268;DHT22;42175;46.930;9.532;2023-04-06T12:58:39;22.70;32.00
56268;DHT22;42175;46.930;9.532;2023-04-06T13:01:07;22.60;31.50
56268;DHT22;42175;46.930;9.532;2023-04-06T13:03:33;22.60;31.20
56268;DHT22;42175;46.930;9.532;2023-04-06T13:06:00;22.60;31.40
56268;DHT22;42175;46.930;9.532;2023-04-06T13:08:26;22.60;31.40
56268;DHT22;42175;46.930;9.532;2023-04-06T13:10:53;22.70;31.50
56268;DHT22;42175;46.930;9.532;2023-04-06T13:13:23;22.70;31.60
56268;DHT22;42175;46.930;9.532;2023-04-06T13:15:49;22.70;31.50
56268;DHT22;42175;46.930;9.532;2023-04-06T13:18:15;22.60;31.40
56268;DHT22;42175;46.930;9.532;2023-04-06T13:20:41;22.70;31.20
56268;DHT22;42175;46.930;9.532;2023-04-06T13:23:07;22.60;31.10
56268;DHT22;42175;46.930;9.532;2023-04-06T13:25:33;22.70;31.40
56268;DHT22;42175;46.930;9.532;2023-04-06T13:27:59;22.60;31.10
56268;DHT22;42175;46.930;9.532;2023-04-06T13:30:25;22.60;31.00
56268;DHT22;42175;46.930;9.532;2023-04-06T13:32:51;22.60;30.80
56268;DHT22;42175;46.930;9.532;2023-04-06T13:35:17;22.60;31.00
56268;DHT22;42175;46.930;9.532;2023-04-06T13:37:43;22.60;31.10
56268;DHT22;42175;46.930;9.532;2023-04-06T13:40:10;22.70;31.20
56268;DHT22;42175;46.930;9.532;2023-04-06T13:42:36;22.60;31.00
56268;DHT22;42175;46.930;9.532;2023-04-06T13:45:04;22.60;31.10
56268;DHT22;42175;46.930;9.532;2023-04-06T13:47:29;22.60;30.90
56268;DHT22;42175;46.930;9.532;2023-04-06T13:49:55;22.70;31.00
56268;DHT22;42175;46.930;9.532;2023-04-06T13:52:21;22.60;31.00
56268;DHT22;42175;46.930;9.532;2023-04-06T13:54:48;22.60;31.10
56268;DHT22;42175;46.930;9.532;2023-04-06T13:57:14;22.60;31.10
56268;DHT22;42175;46.930;9.532;2023-04-06T13:59:40;22.70;30.80
56268;DHT22;42175;46.930;9.532;2023-04-06T14:02:08;22.60;31.10
56268;DHT22;42175;46.930;9.532;2023-04-06T14:04:35;22.70;30.80
56268;DHT22;42175;46.930;9.532;2023-04-06T14:07:01;22.60;30.90
56268;DHT22;42175;46.930;9.532;2023-04-06T14:09:28;22.60;31.00
56268;DHT22;42175;46.930;9.532;2023-04-06T14:11:54;22.70;31.10
56268;DHT22;42175;46.930;9.532;2023-04-06T14:14:20;22.60;31.10
56268;DHT22;42175;46.930;9.532;2023-04-06T14:16:46;22.60;30.90
56268;DHT22;42175;46.930;9.532;2023-04-06T14:19:14;22.60;30.80
56268;DHT22;42175;46.930;9.532;2023-04-06T14:21:41;22.60;30.80
56268;DHT22;42175;46.930;9.532;2023-04-06T14:24:07;22.70;31.10
56268;DHT22;42175;46.930;9.532;2023-04-06T14:26:36;22.70;30.80
56268;DHT22;42175;46.930;9.532;2023-04-06T14:29:03;22.60;30.90
56268;DHT22;42175;46.930;9.532;2023-04-06T14:31:30;22.70;30.80
56268;DHT22;42175;46.930;9.532;2023-04-06T14:33:56;22.60;30.70
56268;DHT22;42175;46.930;9.532;2023-04-06T14:36:22;22.60;30.70
56268;DHT22;42175;46.930;9.532;2023-04-06T14:38:48;22.70;30.90
56268;DHT22;42175;46.930;9.532;2023-04-06T14:41:21;22.60;30.80
56268;DHT22;42175;46.930;9.532;2023-04-06T14:43:48;22.60;30.80
56268;DHT22;42175;46.930;9.532;2023-04-06T14:46:14;22.60;30.90
56268;DHT22;42175;46.930;9.532;2023-04-06T14:48:41;22.60;30.80
56268;DHT22;42175;46.930;9.532;2023-04-06T14:51:07;22.60;31.10
56268;DHT22;42175;46.930;9.532;2023-04-06T14:53:32;22.60;30.90
56268;DHT22;42175;46.930;9.532;2023-04-06T14:55:58;22.70;30.90
56268;DHT22;42175;46.930;9.532;2023-04-06T14:58:25;22.60;30.80
56268;DHT22;42175;46.930;9.532;2023-04-06T15:00:58;22.60;30.90
56268;DHT22;42175;46.930;9.532;2023-04-06T15:03:25;22.70;30.90
56268;DHT22;42175;46.930;9.532;2023-04-06T15:05:54;22.70;30.80
56268;DHT22;42175;46.930;9.532;2023-04-06T15:08:21;22.60;30.90
56268;DHT22;42175;46.930;9.532;2023-04-06T15:10:48;22.70;30.90
56268;DHT22;42175;46.930;9.532;2023-04-06T15:13:14;22.60;30.80
56268;DHT22;42175;46.930;9.532;2023-04-06T15:15:40;22.60;30.90
56268;DHT22;42175;46.930;9.532;2023-04-06T15:18:07;22.60;31.00
56268;DHT22;42175;46.930;9.532;2023-04-06T15:20:33;22.60;31.10
56268;DHT22;42175;46.930;9.532;2023-04-06T15:22:58;22.60;31.10
56268;DHT22;42175;46.930;9.532;2023-04-06T15:25:24;22.60;31.10
56268;DHT22;42175;46.930;9.532;2023-04-06T15:27:50;22.70;31.20
56268;DHT22;42175;46.930;9.532;2023-04-06T15:30:15;22.60;31.30
56268;DHT22;42175;46.930;9.532;2023-04-06T15:32:57;22.70;31.30